createdAt,value
2023-04-18T00:00:31.619Z,15.95
2023-04-18T00:06:15.538Z,15.92
2023-04-18T00:11:59.472Z,15.86
2023-04-18T00:17:44.367Z,15.82
2023-04-18T00:23:28.454Z,15.79
2023-04-18T00:29:12.355Z,15.75
2023-04-18T00:34:56.380Z,15.72
2023-04-18T00:40:40.521Z,15.67
2023-04-18T00:46:24.517Z,15.63
2023-04-18T00:52:08.824Z,15.59
2023-04-18T00:57:53.293Z,15.54
2023-04-18T01:03:38.247Z,15.52
2023-04-18T01:09:23.557Z,15.49
2023-04-18T01:15:08.271Z,15.45
2023-04-18T01:20:52.988Z,15.43
2023-04-18T01:26:38.078Z,15.39
2023-04-18T01:32:26.157Z,15.38
2023-04-18T01:38:10.310Z,15.34
2023-04-18T01:43:55.254Z,15.3
2023-04-18T01:49:39.239Z,15.28
2023-04-18T01:55:25.439Z,15.23
2023-04-18T02:01:09.455Z,15.21
2023-04-18T02:06:54.016Z,15.15
2023-04-18T02:12:37.847Z,15.13
2023-04-18T02:18:22.067Z,15.08
2023-04-18T02:24:06.238Z,15.06
2023-04-18T02:29:50.445Z,15.02
2023-04-18T02:35:34.359Z,15
2023-04-18T02:41:18.310Z,14.93
2023-04-18T02:47:02.350Z,14.91
2023-04-18T02:52:46.245Z,14.9
2023-04-18T02:58:30.426Z,14.84
2023-04-18T03:04:14.580Z,14.82
2023-04-18T03:09:59.151Z,14.78
2023-04-18T03:15:43.395Z,14.76
2023-04-18T03:21:27.406Z,14.72
2023-04-18T03:27:12.958Z,14.67
2023-04-18T03:32:57.759Z,14.64
2023-04-18T03:38:42.108Z,14.59
2023-04-18T03:44:26.023Z,14.55
2023-04-18T03:50:10.685Z,14.5
2023-04-18T03:55:54.710Z,14.48
2023-04-18T04:01:38.843Z,14.54
2023-04-18T04:07:23.224Z,14.47
2023-04-18T04:13:07.146Z,14.42
2023-04-18T04:18:51.056Z,14.38
2023-04-18T04:24:35.174Z,14.35
2023-04-18T04:30:19.322Z,14.32
2023-04-18T04:36:03.411Z,14.28
2023-04-18T04:41:47.299Z,14.32
2023-04-18T04:47:31.230Z,14.28
2023-04-18T04:53:15.173Z,14.26
2023-04-18T04:58:59.390Z,14.26
2023-04-18T05:04:45.437Z,14.31
2023-04-18T05:10:29.379Z,14.28
2023-04-18T05:16:14.572Z,14.26
2023-04-18T05:21:59.590Z,14.29
2023-04-18T05:27:43.721Z,14.3
2023-04-18T05:33:27.677Z,14.36
2023-04-18T05:39:11.693Z,14.36
2023-04-18T05:44:55.709Z,14.41
2023-04-18T05:50:39.918Z,14.48
2023-04-18T05:56:24.032Z,14.54
2023-04-18T06:02:08.138Z,14.56
2023-04-18T06:07:52.530Z,14.65
2023-04-18T06:13:36.675Z,14.78
2023-04-18T06:19:20.647Z,14.88
2023-04-18T06:25:05.008Z,14.89
2023-04-18T06:30:49.998Z,14.99
2023-04-18T06:36:33.986Z,15.01
2023-04-18T06:42:18.743Z,15.03
2023-04-18T06:48:06.452Z,15.04
2023-04-18T06:53:50.734Z,15.12
2023-04-18T06:59:34.923Z,15.14
2023-04-18T07:05:19.194Z,15.29
2023-04-18T07:11:03.329Z,15.37
2023-04-18T07:16:48.558Z,15.8
2023-04-18T07:22:32.792Z,15.96
2023-04-18T07:28:16.586Z,16
2023-04-18T07:34:01.525Z,16.13
2023-04-18T07:39:45.521Z,16.3
2023-04-18T07:45:29.586Z,16.51
2023-04-18T07:51:13.611Z,16.71
2023-04-18T07:56:59.768Z,17
2023-04-18T08:02:44.937Z,17.26
2023-04-18T08:08:29.342Z,17.49
2023-04-18T08:14:14.107Z,17.71
2023-04-18T08:19:58.129Z,17.93
2023-04-18T08:25:42.230Z,18.21
2023-04-18T08:31:26.629Z,18.24
2023-04-18T08:37:10.770Z,18.28
2023-04-18T08:42:57.262Z,18.51
2023-04-18T08:48:41.424Z,18.66
2023-04-18T08:54:27.299Z,18.83
2023-04-18T09:00:12.670Z,19.03
2023-04-18T09:06:09.475Z,19.18
2023-04-18T09:11:58.603Z,19.41
2023-04-18T09:17:43.507Z,19.6
2023-04-18T09:23:28.048Z,19.77
2023-04-18T09:29:11.986Z,19.92
2023-04-18T09:34:57.703Z,20.1
2023-04-18T09:40:46.567Z,20.28
2023-04-18T09:46:30.800Z,20.47
2023-04-18T09:52:17.870Z,20.61
2023-04-18T09:58:03.774Z,20.79
2023-04-18T10:03:50.270Z,20.95
2023-04-18T10:09:35.154Z,21.27
2023-04-18T10:15:20.897Z,21.25
2023-04-18T10:21:05.494Z,21.55
2023-04-18T10:26:49.754Z,21.68
2023-04-18T10:32:34.873Z,21.6
2023-04-18T10:38:22.533Z,21.58
2023-04-18T10:44:16.838Z,21.6
2023-04-18T10:50:05.897Z,22.02
2023-04-18T10:55:54.359Z,22.57
2023-04-18T11:01:43.447Z,22.82
2023-04-18T11:07:36.637Z,22.56
2023-04-18T11:13:20.724Z,22.69
2023-04-18T11:19:09.782Z,22.62
2023-04-18T11:24:57.258Z,22.77
2023-04-18T11:30:44.710Z,23.22
2023-04-18T11:36:28.912Z,23.16
2023-04-18T11:42:13.134Z,23.26
2023-04-18T11:47:59.636Z,23.46
2023-04-18T11:53:44.670Z,23.5
2023-04-18T11:59:28.652Z,23.7
2023-04-18T12:05:13.256Z,23.85
2023-04-18T12:10:59.088Z,23.97
2023-04-18T12:16:43.222Z,24.17
2023-04-18T12:22:43.457Z,24.08
2023-04-18T12:28:27.416Z,24.28
2023-04-18T12:34:11.797Z,24.5
2023-04-18T12:39:56.801Z,24.54
2023-04-18T12:45:40.830Z,24.61
2023-04-18T12:51:24.998Z,24.59
2023-04-18T12:57:09.459Z,24.59
2023-04-18T13:02:53.713Z,24.62
2023-04-18T13:08:38.514Z,24.76
2023-04-18T13:14:22.589Z,24.72
2023-04-18T13:20:07.838Z,24.86
2023-04-18T13:25:52.065Z,24.86
2023-04-18T13:31:36.042Z,25.1
2023-04-18T13:37:20.376Z,25.18
2023-04-18T13:43:04.336Z,25.47
2023-04-18T13:48:49.351Z,25.5
2023-04-18T13:54:33.509Z,25.51
2023-04-18T14:00:18.548Z,25.72
2023-04-18T14:06:02.636Z,25.88
2023-04-18T14:11:46.824Z,25.82
2023-04-18T14:17:30.824Z,25.83
2023-04-18T14:23:15.040Z,25.82
2023-04-18T14:28:59.047Z,25.79
2023-04-18T14:34:43.056Z,25.68
2023-04-18T14:40:27.147Z,25.78
2023-04-18T14:46:17.095Z,25.7
2023-04-18T14:52:01.465Z,25.91
2023-04-18T14:57:45.604Z,25.98
2023-04-18T15:03:29.823Z,26.17
2023-04-18T15:09:14.759Z,26.26
2023-04-18T15:14:58.944Z,26.42
2023-04-18T15:20:42.943Z,26.57
2023-04-18T15:26:27.172Z,26.66
2023-04-18T15:32:15.351Z,26.85
2023-04-18T15:37:59.865Z,27.04
2023-04-18T15:43:43.879Z,26.97
2023-04-18T15:49:28.011Z,26.79
2023-04-18T15:55:13.937Z,26.8
2023-04-18T16:00:57.922Z,26.78
2023-04-18T16:06:42.122Z,26.8
2023-04-18T16:12:26.031Z,26.91
2023-04-18T16:18:10.231Z,26.83
2023-04-18T16:23:54.280Z,26.39
2023-04-18T16:29:38.067Z,26
2023-04-18T16:35:22.112Z,25.87
2023-04-18T16:41:06.253Z,25.95
2023-04-18T16:46:50.560Z,26.1
2023-04-18T16:52:34.555Z,26.3
2023-04-18T16:58:18.326Z,26.55
2023-04-18T17:04:02.525Z,26.78
2023-04-18T17:09:47.633Z,26.87
2023-04-18T17:15:31.966Z,26.79
2023-04-18T17:21:16.046Z,27.09
2023-04-18T17:26:59.874Z,27.12
2023-04-18T17:32:44.260Z,26.23
2023-04-18T17:38:28.695Z,26.02
2023-04-18T17:44:13.263Z,26.11
2023-04-18T17:49:57.414Z,25.73
2023-04-18T17:55:41.562Z,25.32
2023-04-18T18:01:25.736Z,24.83
2023-04-18T18:07:09.970Z,24.44
2023-04-18T18:12:54.018Z,24.08
2023-04-18T18:18:38.106Z,23.77
2023-04-18T18:24:22.050Z,23.41
2023-04-18T18:30:06.887Z,23.15
2023-04-18T18:35:50.650Z,23.2
2023-04-18T18:41:34.993Z,23.17
2023-04-18T18:47:19.140Z,22.72
2023-04-18T18:53:03.340Z,22.42
2023-04-18T18:58:47.397Z,22.13
2023-04-18T19:04:31.381Z,21.9
2023-04-18T19:10:15.953Z,21.69
2023-04-18T19:16:00.011Z,21.56
2023-04-18T19:21:44.314Z,21.36
2023-04-18T19:27:28.313Z,21.19
2023-04-18T19:33:12.440Z,21.02
2023-04-18T19:38:56.449Z,20.87
2023-04-18T19:44:41.716Z,20.74
2023-04-18T19:50:25.761Z,20.59
2023-04-18T19:56:09.818Z,20.49
2023-04-18T20:01:53.923Z,20.35
2023-04-18T20:07:44.921Z,20.23
2023-04-18T20:13:28.960Z,20.13
2023-04-18T20:19:13.990Z,19.98
2023-04-18T20:24:59.204Z,20.02
2023-04-18T20:30:43.223Z,19.83
2023-04-18T20:36:27.302Z,19.71
2023-04-18T20:42:11.337Z,19.63
2023-04-18T20:47:55.596Z,19.49
2023-04-18T20:53:39.771Z,19.39
2023-04-18T20:59:23.802Z,19.29
2023-04-18T21:05:08.283Z,19.19
2023-04-18T21:10:53.178Z,19.1
2023-04-18T21:16:37.180Z,19.02
2023-04-18T21:22:21.794Z,18.91
2023-04-18T21:28:05.819Z,18.84
2023-04-18T21:33:51.290Z,18.76
2023-04-18T21:39:35.201Z,18.69
2023-04-18T21:45:19.221Z,18.62
2023-04-18T21:51:03.555Z,18.51
2023-04-18T21:56:47.548Z,18.44
2023-04-18T22:02:31.677Z,18.37
2023-04-18T22:08:16.489Z,18.33
2023-04-18T22:14:00.695Z,18.28
2023-04-18T22:19:44.840Z,18.24
2023-04-18T22:25:28.864Z,18.15
2023-04-18T22:31:12.962Z,18.06
2023-04-18T22:36:57.436Z,18.02
2023-04-18T22:42:41.606Z,17.95
2023-04-18T22:48:25.570Z,17.83
2023-04-18T22:54:09.578Z,17.78
2023-04-18T22:59:54.146Z,17.68
2023-04-18T23:05:38.277Z,17.59
2023-04-18T23:11:22.492Z,17.53
2023-04-18T23:17:06.550Z,17.47
2023-04-18T23:22:50.479Z,17.39
2023-04-18T23:28:34.894Z,17.33
2023-04-18T23:34:19.197Z,17.25
2023-04-18T23:40:03.284Z,17.19
2023-04-18T23:45:48.801Z,17.15
2023-04-18T23:51:32.938Z,17.08
2023-04-18T23:57:16.919Z,17.03
